createdAt,value
2023-01-05T00:02:45.958Z,77.19
2023-01-05T00:05:49.655Z,77.06
2023-01-05T00:08:53.605Z,78.14
2023-01-05T00:12:15.851Z,77.40
2023-01-05T00:15:37.047Z,77.18
2023-01-05T00:18:58.269Z,77.16
2023-01-05T00:22:19.438Z,77.59
2023-01-05T00:25:25.387Z,77.47
2023-01-05T00:28:30.633Z,78.23
2023-01-05T00:31:34.432Z,77.56
2023-01-05T00:34:38.337Z,78.46
2023-01-05T00:37:42.455Z,77.65
2023-01-05T00:40:46.252Z,76.94
2023-01-05T00:43:51.474Z,76.90
2023-01-05T00:46:55.462Z,77.70
2023-01-05T00:49:59.248Z,77.88
2023-01-05T00:53:03.018Z,77.78
2023-01-05T00:56:06.762Z,78.04
2023-01-05T00:59:12.612Z,77.12
2023-01-05T01:02:16.757Z,77.97
2023-01-05T01:05:20.717Z,79.55
2023-01-05T01:08:24.378Z,79.00
2023-01-05T01:11:28.007Z,78.64
2023-01-05T01:14:33.108Z,77.58
2023-01-05T01:17:36.926Z,77.76
2023-01-05T01:20:40.780Z,78.37
2023-01-05T01:23:44.972Z,78.29
2023-01-05T01:26:49.747Z,77.90
2023-01-05T01:29:54.778Z,78.07
2023-01-05T01:32:58.435Z,78.23
2023-01-05T01:36:05.722Z,77.19
2023-01-05T01:39:09.841Z,77.39
2023-01-05T01:42:17.075Z,78.16
2023-01-05T01:45:25.437Z,77.84
2023-01-05T01:48:29.260Z,77.37
2023-01-05T01:51:37.401Z,77.84
2023-01-05T01:54:41.334Z,77.70
2023-01-05T01:57:46.646Z,77.41
2023-01-05T02:00:51.886Z,76.96
2023-01-05T02:03:56.704Z,77.11
2023-01-05T02:07:01.302Z,77.52
2023-01-05T02:10:06.532Z,77.45
2023-01-05T02:13:31.231Z,77.07
2023-01-05T02:16:48.384Z,77.18
2023-01-05T02:20:36.906Z,77.05
2023-01-05T02:24:12.723Z,77.76
2023-01-05T02:27:45.320Z,79.08
2023-01-05T02:31:01.882Z,78.03
2023-01-05T02:34:23.439Z,78.35
2023-01-05T02:37:37.840Z,78.48
2023-01-05T02:40:47.071Z,78.72
2023-01-05T02:43:51.481Z,79.34
2023-01-05T02:47:05.176Z,78.27
2023-01-05T02:50:14.452Z,77.39
2023-01-05T02:53:23.794Z,77.83
2023-01-05T02:56:32.169Z,77.67
2023-01-05T02:59:38.793Z,78.05
2023-01-05T03:02:48.679Z,78.02
2023-01-05T03:05:57.883Z,77.35
2023-01-05T03:09:05.604Z,77.60
2023-01-05T03:12:32.867Z,78.89
2023-01-05T03:15:39.587Z,78.37
2023-01-05T03:19:03.877Z,78.44
2023-01-05T03:22:30.481Z,77.84
2023-01-05T03:25:56.308Z,78.36
2023-01-05T03:29:19.687Z,77.88
2023-01-05T03:32:45.800Z,77.86
2023-01-05T03:35:56.668Z,78.20
2023-01-05T03:39:03.444Z,78.14
2023-01-05T03:42:12.476Z,77.74
2023-01-05T03:45:19.365Z,77.87
2023-01-05T03:48:27.121Z,78.21
2023-01-05T03:51:37.735Z,79.38
2023-01-05T03:54:45.039Z,79.48
2023-01-05T03:57:48.679Z,79.69
2023-01-05T04:00:53.076Z,80.56
2023-01-05T04:03:59.095Z,79.58
2023-01-05T04:07:04.221Z,79.77
2023-01-05T04:10:11.141Z,79.95
2023-01-05T04:13:15.528Z,79.75
2023-01-05T04:16:20.499Z,79.46
2023-01-05T04:19:26.380Z,79.72
2023-01-05T04:22:33.331Z,79.10
2023-01-05T04:25:37.394Z,79.12
2023-01-05T04:28:51.760Z,79.91
2023-01-05T04:31:59.937Z,79.39
2023-01-05T04:35:10.671Z,80.34
2023-01-05T04:38:17.766Z,79.60
2023-01-05T04:41:21.559Z,80.07
2023-01-05T04:44:28.082Z,80.56
2023-01-05T04:47:33.034Z,80.94
2023-01-05T04:50:37.117Z,80.65
2023-01-05T04:53:44.330Z,80.90
2023-01-05T04:56:52.235Z,80.09
2023-01-05T04:59:56.169Z,80.60
2023-01-05T05:03:04.587Z,81.05
2023-01-05T05:06:09.731Z,80.64
2023-01-05T05:09:16.715Z,80.19
2023-01-05T05:12:21.259Z,79.97
2023-01-05T05:15:28.197Z,79.82
2023-01-05T05:18:32.239Z,79.78
2023-01-05T05:21:37.495Z,79.42
2023-01-05T05:24:43.446Z,79.51
2023-01-05T05:27:47.457Z,79.61
2023-01-05T05:30:51.620Z,80.11
2023-01-05T05:33:55.530Z,78.98
2023-01-05T05:36:59.231Z,79.13
2023-01-05T05:40:04.559Z,79.49
2023-01-05T05:43:08.505Z,79.58
2023-01-05T05:46:12.336Z,79.44
2023-01-05T05:49:16.157Z,79.45
2023-01-05T05:52:19.924Z,79.47
2023-01-05T05:55:25.159Z,79.50
2023-01-05T05:58:28.946Z,79.30
2023-01-05T06:01:32.931Z,79.15
2023-01-05T06:04:36.995Z,80.42
2023-01-05T06:07:40.945Z,79.85
2023-01-05T06:10:46.325Z,80.02
2023-01-05T06:13:50.253Z,79.79
2023-01-05T06:16:53.980Z,79.69
2023-01-05T06:19:57.675Z,79.87
2023-01-05T06:23:01.519Z,79.17
2023-01-05T06:26:07.034Z,79.50
2023-01-05T06:29:10.802Z,78.46
2023-01-05T06:32:14.528Z,78.04
2023-01-05T06:35:18.595Z,77.71
2023-01-05T06:38:22.475Z,76.40
2023-01-05T06:41:27.643Z,76.51
2023-01-05T06:44:31.464Z,75.66
2023-01-05T06:47:35.515Z,75.50
2023-01-05T06:50:39.373Z,74.95
2023-01-05T06:53:43.107Z,75.46
2023-01-05T06:56:48.367Z,76.61
2023-01-05T06:59:52.194Z,78.54
2023-01-05T07:02:55.897Z,78.30
2023-01-05T07:05:59.705Z,77.29
2023-01-05T07:09:03.750Z,77.43
2023-01-05T07:12:09.897Z,76.90
2023-01-05T07:15:13.728Z,77.11
2023-01-05T07:18:17.545Z,76.87
2023-01-05T07:21:21.663Z,77.07
2023-01-05T07:24:25.423Z,76.88
2023-01-05T07:27:30.764Z,76.28
2023-01-05T07:30:34.594Z,74.99
2023-01-05T07:33:40.285Z,73.12
2023-01-05T07:36:44.295Z,71.76
2023-01-05T07:39:47.981Z,70.93
2023-01-05T07:42:54.565Z,72.48
2023-01-05T07:46:01.848Z,71.37
2023-01-05T07:49:05.923Z,70.81
2023-01-05T07:52:09.746Z,69.20
2023-01-05T07:55:14.142Z,68.27
2023-01-05T07:58:19.288Z,66.82
2023-01-05T08:01:23.243Z,66.92
2023-01-05T08:04:27.186Z,65.25
2023-01-05T08:07:30.975Z,64.73
2023-01-05T08:10:34.847Z,65.34
2023-01-05T08:13:57.548Z,63.06
2023-01-05T08:17:01.660Z,62.16
2023-01-05T08:20:05.927Z,62.73
2023-01-05T08:23:09.736Z,61.87
2023-01-05T08:26:15.979Z,61.37
2023-01-05T08:29:21.278Z,60.77
2023-01-05T08:32:25.287Z,61.16
2023-01-05T08:35:29.304Z,61.23
2023-01-05T08:38:33.101Z,59.60
2023-01-05T08:41:39.845Z,59.74
2023-01-05T08:44:45.069Z,58.43
2023-01-05T08:47:48.775Z,59.92
2023-01-05T08:50:52.545Z,58.13
2023-01-05T08:53:56.726Z,57.90
2023-01-05T08:57:00.555Z,56.68
2023-01-05T09:00:07.217Z,56.79
2023-01-05T09:03:11.403Z,55.15
2023-01-05T09:06:16.076Z,53.83
2023-01-05T09:09:19.974Z,53.22
2023-01-05T09:12:25.765Z,52.72
2023-01-05T09:15:34.449Z,52.57
2023-01-05T09:18:38.897Z,52.14
2023-01-05T09:21:42.608Z,51.61
2023-01-05T09:24:46.525Z,52.81
2023-01-05T09:27:50.199Z,52.58
2023-01-05T09:30:55.635Z,52.04
2023-01-05T09:34:00.407Z,51.41
2023-01-05T09:37:04.118Z,50.88
2023-01-05T09:40:09.310Z,50.92
2023-01-05T09:43:22.057Z,50.73
2023-01-05T09:46:31.853Z,49.71
2023-01-05T09:49:36.496Z,51.77
2023-01-05T09:52:40.946Z,50.53
2023-01-05T09:55:49.418Z,49.76
2023-01-05T09:58:57.613Z,49.22
2023-01-05T10:02:08.116Z,49.37
2023-01-05T10:05:14.893Z,47.88
2023-01-05T10:08:24.455Z,47.35
2023-01-05T10:11:55.570Z,47.05
2023-01-05T10:15:05.665Z,47.27
2023-01-05T10:18:18.983Z,47.26
2023-01-05T10:21:32.580Z,47.03
2023-01-05T10:24:48.328Z,47.49
2023-01-05T10:28:01.300Z,46.89
2023-01-05T10:31:14.730Z,46.04
2023-01-05T10:34:24.925Z,46.13
2023-01-05T10:37:47.107Z,45.17
2023-01-05T10:41:00.849Z,45.25
2023-01-05T10:44:40.717Z,45.34
2023-01-05T10:47:46.595Z,44.61
2023-01-05T10:50:55.695Z,45.29
2023-01-05T10:53:59.627Z,44.32
2023-01-05T10:57:36.894Z,44.29
2023-01-05T11:00:43.683Z,44.29
2023-01-05T11:04:26.593Z,45.68
2023-01-05T11:07:15.859Z,44.84
2023-01-05T11:10:25.516Z,44.32
2023-01-05T11:13:33.874Z,44.59
2023-01-05T11:16:38.591Z,45.02
2023-01-05T11:19:46.932Z,44.59
2023-01-05T11:22:52.140Z,44.25
2023-01-05T11:25:56.080Z,44.58
2023-01-05T11:29:15.895Z,44.94
2023-01-05T11:32:19.757Z,45.33
2023-01-05T11:35:31.202Z,45.06
2023-01-05T11:38:36.812Z,46.27
2023-01-05T11:41:42.309Z,45.50
2023-01-05T11:44:49.814Z,45.64
2023-01-05T11:47:56.560Z,45.63
2023-01-05T11:51:00.336Z,45.59
2023-01-05T11:54:07.066Z,45.98
2023-01-05T11:57:16.926Z,45.58
2023-01-05T12:00:25.818Z,46.23
2023-01-05T12:03:52.837Z,46.18
2023-01-05T12:07:10.546Z,46.15
2023-01-05T12:10:37.900Z,46.65
2023-01-05T12:13:54.926Z,46.49
2023-01-05T12:16:59.066Z,46.93
2023-01-05T12:20:14.011Z,46.52
2023-01-05T12:23:36.793Z,47.56
2023-01-05T12:26:52.433Z,46.84
2023-01-05T12:34:03.414Z,46.42
2023-01-05T12:37:22.536Z,46.35
2023-01-05T12:40:42.686Z,46.35
2023-01-05T12:44:01.794Z,46.61
2023-01-05T12:47:18.947Z,46.41
2023-01-05T12:50:28.819Z,45.94
2023-01-05T12:53:44.744Z,45.88
2023-01-05T12:56:52.901Z,46.51
2023-01-05T13:00:05.269Z,46.67
2023-01-05T13:03:18.259Z,46.48
2023-01-05T13:06:24.997Z,46.37
2023-01-05T13:09:33.602Z,46.72
2023-01-05T13:12:38.859Z,46.81
2023-01-05T13:15:54.237Z,46.61
2023-01-05T13:19:06.064Z,47.51
2023-01-05T13:22:16.746Z,47.18
2023-01-05T13:25:22.781Z,46.59
2023-01-05T13:28:29.963Z,47.07
2023-01-05T13:32:03.107Z,46.42
2023-01-05T13:35:26.198Z,46.36
2023-01-05T13:39:14.776Z,46.72
2023-01-05T13:42:51.379Z,46.93
2023-01-05T13:46:11.593Z,47.29
2023-01-05T13:49:50.909Z,47.84
2023-01-05T13:53:06.271Z,48.93
2023-01-05T13:56:23.100Z,48.99
2023-01-05T13:59:34.999Z,49.82
2023-01-05T14:02:42.563Z,49.39
2023-01-05T14:05:52.970Z,49.67
2023-01-05T14:09:01.723Z,50.26
2023-01-05T14:12:42.706Z,50.63
2023-01-05T14:15:46.490Z,51.44
2023-01-05T14:18:54.736Z,52.22
2023-01-05T14:22:03.539Z,51.82
2023-01-05T14:25:54.120Z,51.67
2023-01-05T14:28:57.829Z,51.32
2023-01-05T14:32:09.244Z,51.63
2023-01-05T14:35:29.735Z,52.18
2023-01-05T14:38:33.674Z,51.75
2023-01-05T14:41:40.068Z,51.82
2023-01-05T14:44:50.006Z,51.98
2023-01-05T14:47:57.145Z,52.45
2023-01-05T14:51:21.437Z,52.13
2023-01-05T14:55:27.112Z,52.60
2023-01-05T14:59:14.627Z,52.55
2023-01-05T15:02:23.337Z,53.05
2023-01-05T15:05:28.354Z,52.68
2023-01-05T15:08:56.000Z,53.02
2023-01-05T15:12:40.698Z,52.69
2023-01-05T15:15:51.663Z,53.00
2023-01-05T15:19:19.861Z,53.35
2023-01-05T15:22:39.373Z,53.32
2023-01-05T15:26:07.665Z,53.29
2023-01-05T15:29:35.002Z,52.96
2023-01-05T15:32:44.680Z,53.55
2023-01-05T15:36:02.567Z,53.48
2023-01-05T15:39:24.675Z,54.09
2023-01-05T15:42:33.005Z,53.87
2023-01-05T15:45:43.366Z,54.23
2023-01-05T15:48:51.772Z,54.09
2023-01-05T15:51:57.539Z,54.08
2023-01-05T15:55:04.394Z,54.50
2023-01-05T15:58:17.017Z,54.35
2023-01-05T16:01:21.052Z,54.39
2023-01-05T16:04:27.207Z,54.61
2023-01-05T16:07:30.986Z,54.44
2023-01-05T16:10:39.766Z,54.56
2023-01-05T16:13:49.833Z,55.20
2023-01-05T16:16:57.071Z,55.37
2023-01-05T16:20:08.049Z,55.62
2023-01-05T16:23:17.376Z,55.38
2023-01-05T16:26:21.357Z,55.67
2023-01-05T16:29:35.248Z,58.37
2023-01-05T16:32:42.109Z,57.70
2023-01-05T16:35:49.094Z,58.52
2023-01-05T16:38:52.868Z,57.12
2023-01-05T16:42:19.495Z,57.25
2023-01-05T16:45:25.599Z,56.63
2023-01-05T16:48:49.747Z,56.85
2023-01-05T16:51:56.581Z,56.96
2023-01-05T16:55:29.564Z,56.78
2023-01-05T16:58:38.818Z,57.07
2023-01-05T17:01:47.039Z,57.31
2023-01-05T17:04:50.822Z,57.38
2023-01-05T17:08:04.346Z,57.23
2023-01-05T17:11:12.986Z,56.77
2023-01-05T17:14:18.620Z,57.40
2023-01-05T17:17:22.326Z,57.32
2023-01-05T17:20:30.378Z,57.07
2023-01-05T17:23:42.448Z,57.59
2023-01-05T17:26:46.559Z,58.24
2023-01-05T17:29:50.349Z,58.13
2023-01-05T17:32:54.145Z,58.09
2023-01-05T17:35:58.112Z,58.29
2023-01-05T17:39:03.768Z,58.56
2023-01-05T17:42:24.917Z,58.52
2023-01-05T17:45:28.701Z,58.92
2023-01-05T17:48:32.488Z,59.18
2023-01-05T17:51:36.320Z,60.38
2023-01-05T17:54:42.721Z,61.41
2023-01-05T17:57:46.419Z,60.74
2023-01-05T18:00:50.344Z,60.11
2023-01-05T18:03:54.133Z,60.85
2023-01-05T18:06:59.308Z,60.79
2023-01-05T18:10:05.507Z,60.47
2023-01-05T18:13:11.148Z,59.82
2023-01-05T18:16:15.372Z,60.43
2023-01-05T18:19:19.289Z,60.32
2023-01-05T18:22:23.023Z,60.61
2023-01-05T18:25:28.284Z,60.36
2023-01-05T18:28:32.183Z,60.05
2023-01-05T18:31:38.617Z,60.83
2023-01-05T18:34:43.968Z,59.90
2023-01-05T18:37:47.829Z,59.57
2023-01-05T18:40:53.010Z,58.98
2023-01-05T18:43:56.952Z,58.93
2023-01-05T18:47:00.776Z,59.10
2023-01-05T18:50:06.304Z,59.28
2023-01-05T18:53:10.129Z,59.47
2023-01-05T18:56:16.247Z,59.37
2023-01-05T18:59:20.106Z,59.50
2023-01-05T19:02:23.925Z,59.00
2023-01-05T19:05:27.667Z,59.57
2023-01-05T19:08:31.608Z,59.49
2023-01-05T19:11:38.278Z,59.60
2023-01-05T19:14:41.972Z,60.03
2023-01-05T19:17:45.737Z,60.15
2023-01-05T19:20:58.092Z,60.38
2023-01-05T19:24:03.524Z,60.89
2023-01-05T19:27:08.685Z,61.28
2023-01-05T19:30:14.724Z,61.08
2023-01-05T19:33:18.448Z,61.29
2023-01-05T19:36:24.848Z,61.35
2023-01-05T19:39:28.573Z,62.13
2023-01-05T19:42:34.188Z,61.79
2023-01-05T19:45:37.901Z,61.15
2023-01-05T19:48:42.761Z,61.09
2023-01-05T19:51:47.362Z,60.57
2023-01-05T19:54:51.088Z,60.15
2023-01-05T19:57:56.318Z,59.81
2023-01-05T20:01:05.752Z,59.28
2023-01-05T20:04:09.838Z,59.04
2023-01-05T20:07:13.860Z,59.15
2023-01-05T20:10:17.789Z,59.32
2023-01-05T20:13:23.021Z,59.57
2023-01-05T20:16:26.776Z,59.41
2023-01-05T20:19:32.417Z,60.86
2023-01-05T20:22:36.308Z,60.67
2023-01-05T20:25:39.960Z,59.89
2023-01-05T20:28:46.994Z,59.23
2023-01-05T20:31:55.398Z,58.67
2023-01-05T20:35:00.943Z,58.87
2023-01-05T20:38:04.701Z,59.02
2023-01-05T20:41:20.224Z,59.10
2023-01-05T20:44:28.043Z,59.93
2023-01-05T20:47:39.382Z,60.08
2023-01-05T20:50:50.476Z,59.92
2023-01-05T20:53:56.061Z,59.22
2023-01-05T20:57:00.157Z,58.80
2023-01-05T21:00:06.076Z,59.30
2023-01-05T21:03:09.862Z,58.80
2023-01-05T21:06:17.443Z,59.17
2023-01-05T21:09:21.924Z,58.44
2023-01-05T21:12:25.905Z,58.12
2023-01-05T21:15:31.066Z,58.47
2023-01-05T21:18:35.333Z,58.26
2023-01-05T21:21:39.390Z,57.79
2023-01-05T21:24:43.494Z,57.70
2023-01-05T21:27:47.260Z,57.71
2023-01-05T21:30:52.702Z,58.01
2023-01-05T21:33:56.607Z,57.80
2023-01-05T21:37:00.360Z,57.81
2023-01-05T21:40:04.734Z,57.67
2023-01-05T21:43:08.489Z,58.59
2023-01-05T21:46:13.658Z,58.35
2023-01-05T21:49:18.029Z,59.39
2023-01-05T21:52:39.072Z,58.36
2023-01-05T21:55:59.987Z,58.40
2023-01-05T21:59:05.667Z,58.28
2023-01-05T22:02:11.357Z,58.26
2023-01-05T22:05:15.190Z,58.27
2023-01-05T22:08:19.139Z,57.91
2023-01-05T22:11:24.316Z,58.04
2023-01-05T22:14:28.075Z,58.45
2023-01-05T22:17:34.637Z,58.21
2023-01-05T22:20:38.938Z,58.23
2023-01-05T22:23:43.020Z,57.96
2023-01-05T22:26:46.829Z,57.79
2023-01-05T22:29:50.596Z,57.63
2023-01-05T22:32:56.624Z,57.41
2023-01-05T22:36:00.836Z,57.30
2023-01-05T22:39:04.959Z,57.14
2023-01-05T22:42:08.735Z,57.07
2023-01-05T22:45:13.088Z,57.06
2023-01-05T22:48:18.856Z,56.74
2023-01-05T22:51:24.886Z,57.01
2023-01-05T22:54:28.739Z,56.92
2023-01-05T22:57:32.623Z,56.62
2023-01-05T23:00:36.397Z,56.57
2023-01-05T23:03:42.509Z,56.45
2023-01-05T23:06:46.349Z,56.49
2023-01-05T23:09:50.088Z,56.11
2023-01-05T23:12:53.921Z,56.18
2023-01-05T23:15:58.470Z,55.87
2023-01-05T23:19:04.028Z,55.37
2023-01-05T23:22:11.490Z,55.19
2023-01-05T23:25:15.439Z,55.34
2023-01-05T23:28:20.568Z,55.20
2023-01-05T23:31:24.506Z,55.60
2023-01-05T23:34:30.320Z,55.98
2023-01-05T23:37:34.938Z,56.27
2023-01-05T23:40:42.618Z,55.75
2023-01-05T23:43:47.819Z,55.52
2023-01-05T23:46:51.545Z,54.97
2023-01-05T23:49:56.861Z,55.46
2023-01-05T23:53:00.706Z,55.68
2023-01-05T23:56:09.443Z,55.49
2023-01-05T23:59:14.458Z,55.47
